Time;durP1;ratioP1;P1;durP2;ratioP2;P2;SDS_P1;SDS_P2;PMS_P1;PMS_P2;Temp;Humidity;BMP_temperature;BMP_pressure;BME280_temperature;BME280_humidity;BME280_pressure;Samples;Min_cycle;Max_cycle;Signal;HPM_P1;HPM_P2
2022/09/12 00:00:52;;;;;;;40.50;5.90;;;;;;;11.87;85.33;99422.64;1791144;79;21056;-71
2022/09/12 00:03:19;;;;;;;95.20;6.53;;;;;;;11.84;85.28;99425.57;1780826;79;21033;-71
2022/09/12 00:05:46;;;;;;;125.65;6.97;;;;;;;11.81;85.23;99417.13;1806215;79;21077;-71
2022/09/12 00:08:14;;;;;;;93.47;7.03;;;;;;;11.78;85.24;99420.05;1803830;79;21858;-71
2022/09/12 00:10:43;;;;;;;46.92;6.72;;;;;;;11.75;85.29;99426.45;1797165;78;21057;-72
2022/09/12 00:13:09;;;;;;;78.72;6.17;;;;;;;11.75;85.37;99427.77;1794796;78;21044;-72
2022/09/12 00:15:42;;;;;;;65.52;6.47;;;;;;;11.78;85.47;99434.11;1798958;79;22097;-71
2022/09/12 00:18:15;;;;;;;99.17;7.72;;;;;;;11.77;85.45;99444.32;1804175;77;20998;-71
2022/09/12 00:20:43;;;;;;;101.00;7.95;;;;;;;11.74;85.41;99440.17;1805067;78;21811;-71
2022/09/12 00:23:11;;;;;;;79.22;8.03;;;;;;;11.73;85.46;99438.52;1806598;78;21628;-70
2022/09/12 00:25:43;;;;;;;56.35;7.80;;;;;;;11.72;85.54;99438.67;1805584;79;21045;-70
2022/09/12 00:28:10;;;;;;;88.03;8.88;;;;;;;11.73;85.59;99435.04;1804405;78;21022;-73
2022/09/12 00:30:46;;;;;;;84.83;8.45;;;;;;;11.72;85.64;99431.56;1806785;77;21022;-70
2022/09/12 00:33:13;;;;;;;94.60;9.75;;;;;;;11.69;85.60;99443.78;1790763;79;21500;-71
2022/09/12 00:35:51;;;;;;;65.62;9.08;;;;;;;11.63;85.53;99434.28;1806276;78;21485;-75
2022/09/12 00:38:19;;;;;;;91.40;9.68;;;;;;;11.60;85.61;99430.63;1806242;79;21460;-71
2022/09/12 00:40:46;;;;;;;42.85;8.03;;;;;;;11.60;85.73;99425.34;1806647;79;21007;-72
2022/09/12 00:43:39;;;;;;;75.45;9.90;;;;;;;11.63;85.80;99428.50;1793534;79;21066;-71
2022/09/12 00:46:42;;;;;;;86.70;10.70;;;;;;;11.60;85.73;99431.46;1801940;78;22447;-70
2022/09/12 00:49:25;;;;;;;76.62;12.47;;;;;;;11.57;85.75;99425.62;1808736;77;20983;-71
2022/09/12 00:52:06;;;;;;;93.78;15.18;;;;;;;11.57;85.87;99430.42;1808139;78;21671;-73
2022/09/12 00:54:45;;;;;;;147.53;16.67;;;;;;;11.56;85.90;99429.25;1788045;78;21100;-71
2022/09/12 00:57:12;;;;;;;127.70;17.05;;;;;;;11.55;86.04;99426.27;1751981;80;21037;-71
2022/09/12 00:59:49;;;;;;;87.65;18.35;;;;;;;11.57;86.16;99428.27;1726988;81;21831;-70
2022/09/12 01:02:16;;;;;;;92.05;18.52;;;;;;;11.59;86.24;99427.16;1729310;82;21099;-71
2022/09/12 01:04:43;;;;;;;51.05;14.55;;;;;;;11.62;86.37;99418.08;1755766;80;21049;-72
2022/09/12 01:07:10;;;;;;;81.67;11.38;;;;;;;11.62;86.47;99422.05;1734767;81;21053;-70
2022/09/12 01:09:38;;;;;;;67.00;10.45;;;;;;;11.61;86.52;99419.90;1753860;81;21096;-71
2022/09/12 01:12:05;;;;;;;70.10;10.35;;;;;;;11.62;86.54;99411.47;1749514;81;21842;-71
2022/09/12 01:14:32;;;;;;;55.58;9.68;;;;;;;11.61;86.57;99409.31;1732555;81;21084;-71
2022/09/12 01:16:58;;;;;;;38.80;9.50;;;;;;;11.65;86.61;99408.51;1747754;80;21276;-69
2022/09/12 01:22:52;;;;;;;87.92;8.80;;;;;;;11.67;86.69;99399.43;1752181;81;21058;-71
2022/09/12 01:25:32;;;;;;;50.00;8.58;;;;;;;11.69;86.75;99405.42;1726043;83;21747;-72
2022/09/12 01:28:37;;;;;;;59.13;9.33;;;;;;;11.71;86.82;99399.98;1708882;82;21502;-72
2022/09/12 01:31:17;;;;;;;86.25;8.15;;;;;;;11.71;86.83;99383.61;1713323;81;21433;-72
2022/09/12 01:34:13;;;;;;;65.75;8.20;;;;;;;11.73;86.89;99380.81;1734579;82;21039;-71
2022/09/12 01:36:57;;;;;;;64.53;7.70;;;;;;;11.73;86.87;99380.81;1743362;82;21357;-71
2022/09/12 01:39:35;;;;;;;71.87;8.13;;;;;;;11.70;86.87;99391.22;1746406;82;21799;-71
2022/09/12 01:42:16;;;;;;;97.47;8.63;;;;;;;11.70;86.88;99399.15;1736210;81;21031;-70
2022/09/12 01:45:03;;;;;;;98.82;8.83;;;;;;;11.72;86.97;99395.02;1714718;80;21103;-70
2022/09/12 01:47:35;;;;;;;54.40;8.00;;;;;;;11.74;86.99;99389.91;1755696;81;21379;-71
2022/09/12 01:50:17;;;;;;;51.83;8.20;;;;;;;11.78;87.06;99392.27;1755892;81;21124;-72
2022/09/12 01:53:10;;;;;;;45.40;8.30;;;;;;;11.80;87.04;99389.84;1755923;80;22565;-71
2022/09/12 01:55:45;;;;;;;84.85;9.53;;;;;;;11.80;87.04;99381.06;1732973;82;25305;-72
2022/09/12 01:58:20;;;;;;;118.45;8.98;;;;;;;11.80;87.04;99372.64;1741789;82;21060;-71
2022/09/12 02:00:56;;;;;;;77.20;8.13;;;;;;;11.80;87.04;99373.95;1737327;80;21577;-72
2022/09/12 02:03:26;;;;;;;84.52;8.30;;;;;;;11.80;87.04;99376.61;1737064;82;21086;-71
2022/09/12 02:06:00;;;;;;;54.27;8.03;;;;;;;11.79;87.02;99370.95;1727888;82;21888;-70
2022/09/12 02:08:31;;;;;;;72.53;7.95;;;;;;;11.81;87.07;99376.11;1733778;82;21080;-70
2022/09/12 02:11:06;;;;;;;71.25;8.88;;;;;;;11.84;87.11;99367.36;1742089;82;21055;-71
2022/09/12 02:13:45;;;;;;;19.15;7.83;;;;;;;11.84;87.08;99365.21;1740846;80;21497;-70
2022/09/12 02:16:20;;;;;;;7.42;6.72;;;;;;;11.85;87.11;99367.70;1733342;82;21099;-71
2022/09/12 02:18:52;;;;;;;9.28;7.55;;;;;;;11.85;87.07;99380.92;1741866;82;22354;-71
2022/09/12 02:21:19;;;;;;;9.58;7.03;;;;;;;11.82;87.02;99383.89;1741416;82;21457;-71
2022/09/12 02:23:50;;;;;;;11.95;7.42;;;;;;;11.83;87.03;99380.25;1741402;81;21016;-71
2022/09/12 02:26:24;;;;;;;7.62;6.12;;;;;;;11.83;87.03;99380.25;1757433;80;21041;-72
2022/09/12 02:28:52;;;;;;;9.33;7.95;;;;;;;11.81;86.98;99380.91;1743803;81;21049;-71
2022/09/12 02:31:35;;;;;;;14.07;8.75;;;;;;;11.80;86.95;99387.68;1750257;80;21795;-71
2022/09/12 02:34:13;;;;;;;19.80;8.80;;;;;;;11.77;86.94;99388.77;1711515;83;21366;-70
2022/09/12 02:36:53;;;;;;;12.78;8.45;;;;;;;11.76;87.01;99388.42;1749746;80;21068;-71
2022/09/12 02:39:20;;;;;;;8.58;7.67;;;;;;;11.76;87.02;99380.49;1759831;81;21051;-72
2022/09/12 02:41:49;;;;;;;8.03;7.22;;;;;;;11.78;87.05;99386.98;1729985;81;21057;-71
2022/09/12 02:44:16;;;;;;;7.97;7.17;;;;;;;11.76;87.04;99380.00;1753960;79;21966;-71
2022/09/12 02:46:47;;;;;;;10.90;8.35;;;;;;;11.75;87.00;99377.02;1785259;78;21487;-71
2022/09/12 02:49:15;;;;;;;10.93;7.95;;;;;;;11.76;87.03;99377.35;1786335;79;21105;-70
2022/09/12 02:54:16;;;;;;;24.30;9.65;;;;;;;11.79;87.03;99379.38;1778499;78;21089;-71
2022/09/12 02:56:44;;;;;;;17.60;9.80;;;;;;;11.80;87.05;99387.19;1798375;78;21874;-70
2022/09/12 02:59:16;;;;;;;23.00;10.43;;;;;;;11.80;87.00;99383.22;1801971;78;21014;-71
2022/09/12 03:02:16;;;;;;;16.80;9.45;;;;;;;11.80;87.00;99378.42;1798006;78;20999;-70
2022/09/12 03:05:03;;;;;;;28.62;10.03;;;;;;;11.80;86.98;99381.89;1793739;78;21003;-71
2022/09/12 03:07:56;;;;;;;12.13;9.38;;;;;;;11.78;86.98;99375.91;1778897;79;21461;-73
2022/09/12 03:10:40;;;;;;;;;;;;;;;11.78;86.98;99374.58;1798502;78;22240;-70
2022/09/12 03:13:27;;;;;;;13.20;9.03;;;;;;;11.76;86.94;99370.73;1761137;79;20181;-70
2022/09/12 03:16:27;;;;;;;11.43;8.90;;;;;;;11.74;87.01;99372.71;1801737;79;21007;-71
2022/09/12 03:19:30;;;;;;;9.83;8.83;;;;;;;11.75;87.06;99374.38;1766739;79;21488;-71
2022/09/12 03:22:14;;;;;;;9.93;8.85;;;;;;;11.75;87.09;99373.05;1772791;79;20908;-70
2022/09/12 03:24:49;;;;;;;11.10;8.50;;;;;;;11.78;87.13;99366.64;1803775;78;21856;-72
2022/09/12 03:27:36;;;;;;;10.25;9.15;;;;;;;11.80;87.16;99367.34;1798602;78;21089;-72
2022/09/12 03:30:05;;;;;;;11.10;8.70;;;;;;;11.82;87.15;99361.89;1775946;79;21065;-72
2022/09/12 03:32:48;;;;;;;9.48;8.03;;;;;;;11.82;87.13;99364.05;1802378;79;21564;-72
2022/09/12 03:35:17;;;;;;;11.10;9.30;;;;;;;11.84;87.17;99364.72;1793065;78;21125;-72
2022/09/12 03:37:43;;;;;;;11.05;9.28;;;;;;;11.86;87.15;99361.41;1796061;78;21840;-71
2022/09/12 03:40:14;;;;;;;16.48;9.48;;;;;;;11.89;87.15;99367.75;1794969;78;21008;-72
2022/09/12 03:42:48;;;;;;;13.18;9.30;;;;;;;11.92;87.15;99362.13;1774745;79;21026;-71
2022/09/12 03:45:15;;;;;;;12.30;9.93;;;;;;;11.93;87.11;99365.61;1806946;77;21050;-70
2022/09/12 03:47:42;;;;;;;17.48;10.15;;;;;;;11.95;87.07;99359.66;1806119;79;21085;-72
2022/09/12 03:50:09;;;;;;;14.38;9.35;;;;;;;11.96;87.04;99360.83;1801972;79;21813;-70
2022/09/12 03:52:36;;;;;;;30.97;10.35;;;;;;;11.97;87.05;99363.84;1769436;79;21027;-72
2022/09/12 03:55:03;;;;;;;20.20;10.25;;;;;;;11.99;87.02;99361.86;1805792;77;21058;-72
2022/09/12 03:57:30;;;;;;;14.33;10.10;;;;;;;11.99;86.99;99361.86;1778724;77;21010;-71
2022/09/12 03:59:56;;;;;;;26.70;10.78;;;;;;;11.99;86.96;99368.48;1799183;77;21026;-71
2022/09/12 04:02:23;;;;;;;19.20;10.10;;;;;;;12.01;86.97;99361.70;1804448;78;22175;-72
2022/09/12 04:04:50;;;;;;;14.65;10.05;;;;;;;12.01;86.97;99369.14;1796365;79;21035;-71
2022/09/12 04:09:49;;;;;;;12.88;10.40;;;;;;;12.02;86.99;99365.51;1806576;77;27610;-72
2022/09/12 04:12:16;;;;;;;11.83;10.23;;;;;;;12.05;87.02;99369.65;1789636;79;21031;-73
2022/09/12 04:14:43;;;;;;;14.75;10.40;;;;;;;12.09;87.13;99370.19;1805925;77;22446;-71
2022/09/12 04:17:11;;;;;;;14.87;10.90;;;;;;;12.12;87.17;99364.08;1755028;80;22060;-70
2022/09/12 04:19:38;;;;;;;13.60;10.45;;;;;;;12.14;87.16;99362.09;1757015;80;21027;-71
2022/09/12 04:22:05;;;;;;;14.83;10.70;;;;;;;12.18;87.19;99358.17;1721161;82;21039;-71
2022/09/12 04:24:31;;;;;;;11.83;10.50;;;;;;;12.22;87.23;99356.03;1739262;82;21044;-70
2022/09/12 04:26:58;;;;;;;10.65;9.43;;;;;;;12.26;87.25;99354.25;1739221;81;21823;-70
2022/09/12 04:29:24;;;;;;;11.90;10.63;;;;;;;12.32;87.27;99354.92;1738362;81;21063;-71
2022/09/12 04:31:51;;;;;;;14.23;10.08;;;;;;;12.35;87.23;99350.30;1738306;81;21047;-72
2022/09/12 04:34:18;;;;;;;12.58;10.90;;;;;;;12.37;87.17;99359.77;1730930;81;21036;-69
2022/09/12 04:36:45;;;;;;;12.25;10.08;;;;;;;12.39;87.20;99362.25;1740097;82;20916;-71
2022/09/12 04:39:11;;;;;;;11.75;10.08;;;;;;;12.44;87.26;99359.94;1736908;82;21850;-69
2022/09/12 04:41:44;;;;;;;11.50;10.40;;;;;;;12.49;87.32;99366.44;1713697;79;21040;-71
2022/09/12 04:44:11;;;;;;;11.43;10.23;;;;;;;12.53;87.25;99366.44;1801302;79;21007;-71
2022/09/12 04:46:43;;;;;;;12.43;11.00;;;;;;;12.56;87.18;99362.17;1798193;78;21018;-71
2022/09/12 04:49:11;;;;;;;12.68;10.55;;;;;;;12.59;87.16;99364.98;1787467;78;21058;-72
2022/09/12 04:51:39;;;;;;;12.75;10.20;;;;;;;12.63;87.18;99367.64;1797732;78;21874;-71
2022/09/12 04:54:13;;;;;;;12.45;10.93;;;;;;;12.68;87.20;99365.85;1783724;78;21025;-71
2022/09/12 04:56:43;;;;;;;12.03;10.72;;;;;;;12.70;87.12;99371.81;1798500;79;21003;-70
2022/09/12 04:59:10;;;;;;;12.30;10.90;;;;;;;12.73;87.12;99363.53;1779868;78;21091;-72
2022/09/12 05:01:37;;;;;;;12.50;11.20;;;;;;;12.76;87.14;99356.61;1797182;79;21010;-71
2022/09/12 05:04:04;;;;;;;11.70;10.38;;;;;;;12.82;87.17;99359.92;1786083;78;21869;-71
2022/09/12 05:06:35;;;;;;;11.93;10.72;;;;;;;12.88;87.23;99362.77;1800885;78;21019;-71
2022/09/12 05:09:04;;;;;;;12.98;10.23;;;;;;;12.92;87.07;99360.62;1794477;78;21026;-71
2022/09/12 05:11:34;;;;;;;11.28;10.18;;;;;;;12.94;86.95;99361.81;1802075;78;21015;-71
2022/09/12 05:14:01;;;;;;;11.15;9.98;;;;;;;12.94;86.82;99358.66;1786621;79;21540;-71
2022/09/12 05:16:30;;;;;;;11.35;10.15;;;;;;;12.97;86.79;99361.48;1777417;79;21933;-71
2022/09/12 05:18:57;;;;;;;12.73;11.20;;;;;;;13.01;86.78;99368.10;1797564;79;21040;-72
2022/09/12 05:21:24;;;;;;;12.45;11.15;;;;;;;13.00;86.67;99368.59;1795768;79;21624;-71
2022/09/12 05:23:56;;;;;;;12.30;11.00;;;;;;;12.99;86.55;99362.97;1771891;79;21023;-71
2022/09/12 05:26:22;;;;;;;12.47;11.22;;;;;;;13.02;86.57;99369.75;1784467;79;21445;-70
2022/09/12 05:28:50;;;;;;;12.65;11.35;;;;;;;13.05;86.61;99364.98;1763873;79;22462;-72
2022/09/12 05:31:20;;;;;;;13.15;11.57;;;;;;;13.08;86.56;99357.19;1803672;78;21572;-72
2022/09/12 05:33:48;;;;;;;13.00;11.57;;;;;;;13.10;86.47;99359.17;1785574;79;21105;-71
2022/09/12 05:36:20;;;;;;;13.28;11.88;;;;;;;13.13;86.49;99358.88;1791009;79;21039;-70
2022/09/12 05:38:48;;;;;;;13.10;11.75;;;;;;;13.13;86.37;99364.17;1802090;78;21026;-72
2022/09/12 05:41:18;;;;;;;13.58;12.18;;;;;;;13.13;86.28;99357.05;1797551;78;21588;-70
2022/09/12 05:43:45;;;;;;;13.53;12.23;;;;;;;13.14;86.20;99362.68;1796938;78;21043;-69
2022/09/12 05:46:18;;;;;;;14.68;12.60;;;;;;;13.15;86.18;99357.70;1799690;78;21433;-70
2022/09/12 05:48:47;;;;;;;13.98;12.58;;;;;;;13.18;86.20;99358.70;1794273;78;21081;-70
2022/09/12 05:51:19;;;;;;;14.23;12.82;;;;;;;13.22;86.25;99353.09;1799978;78;21041;-69
2022/09/12 05:53:56;;;;;;;13.48;12.07;;;;;;;13.26;86.26;99353.94;1799819;79;21858;-71
2022/09/12 05:56:26;;;;;;;14.00;12.50;;;;;;;13.32;86.25;99356.45;1768394;79;21069;-71
2022/09/12 05:58:58;;;;;;;14.63;13.13;;;;;;;13.36;86.24;99356.44;1775731;79;20960;-70
2022/09/12 06:01:26;;;;;;;10.30;9.27;;;;;;;13.38;86.14;99353.95;1802699;78;21461;-71
2022/09/12 06:03:55;;;;;;;14.43;12.80;;;;;;;13.42;86.09;99362.42;1794451;79;21090;-71
2022/09/12 06:06:23;;;;;;;13.75;12.30;;;;;;;13.42;86.00;99363.75;1799470;79;21828;-72
2022/09/12 06:08:53;;;;;;;14.35;12.93;;;;;;;13.44;86.02;99362.58;1795331;78;21054;-71
2022/09/12 06:11:22;;;;;;;13.98;12.53;;;;;;;13.51;86.08;99357.92;1799457;78;21086;-71
2022/09/12 06:13:50;;;;;;;14.78;13.30;;;;;;;13.53;86.02;99359.44;1783637;79;21422;-72
2022/09/12 06:16:19;;;;;;;14.73;13.15;;;;;;;13.58;85.97;99361.09;1800350;78;21047;-73
2022/09/12 06:18:50;;;;;;;15.32;13.72;;;;;;;13.59;85.86;99366.72;1819166;78;21792;-71
2022/09/12 06:21:17;;;;;;;14.30;12.82;;;;;;;13.60;85.73;99365.72;1764082;78;21540;-71
2022/09/12 06:23:45;;;;;;;14.98;13.48;;;;;;;13.62;85.72;99362.42;1799175;79;20992;-70
2022/09/12 06:26:12;;;;;;;15.23;13.68;;;;;;;13.65;85.74;99362.09;1793792;79;21080;-71
2022/09/12 06:28:41;;;;;;;14.90;13.40;;;;;;;13.68;85.64;99360.91;1780494;78;21007;-72
2022/09/12 06:31:10;;;;;;;16.85;14.00;;;;;;;13.68;85.59;99364.40;1791806;78;22111;-72
2022/09/12 06:33:40;;;;;;;16.57;14.87;;;;;;;13.69;85.45;99367.87;1801423;78;21015;-70
2022/09/12 06:36:15;;;;;;;18.15;14.80;;;;;;;13.70;85.40;99366.88;1794205;78;21441;-72
2022/09/12 06:38:42;;;;;;;17.23;15.48;;;;;;;13.72;85.34;99368.39;1786304;79;21027;-71
2022/09/12 06:41:11;;;;;;;17.23;14.83;;;;;;;13.73;85.31;99369.23;1786495;79;21054;-70
2022/09/12 06:43:38;;;;;;;17.85;15.43;;;;;;;13.75;85.23;99373.86;1801390;79;22466;-71
2022/09/12 06:46:06;;;;;;;18.17;15.38;;;;;;;13.75;85.18;99383.15;1793558;79;21490;-73
2022/09/12 06:48:33;;;;;;;17.77;15.88;;;;;;;13.77;85.17;99372.36;1802441;78;21018;-71
2022/09/12 06:51:10;;;;;;;17.37;14.50;;;;;;;13.79;85.18;99375.67;1798572;78;21485;-72
2022/09/12 06:53:37;;;;;;;16.42;14.55;;;;;;;13.79;85.13;99374.34;1791162;79;21002;-71
2022/09/12 06:56:19;;;;;;;16.12;14.50;;;;;;;13.81;85.17;99376.36;1801596;78;21949;-72
2022/09/12 06:58:46;;;;;;;17.42;15.32;;;;;;;13.86;85.24;99374.02;1762161;79;21190;-72
2022/09/12 07:01:21;;;;;;;14.98;13.48;;;;;;;13.91;85.35;99383.65;1785039;79;21039;-69
2022/09/12 07:03:52;;;;;;;15.93;14.23;;;;;;;13.94;85.31;99380.15;1798339;79;21105;-71
2022/09/12 07:06:21;;;;;;;16.12;14.38;;;;;;;13.94;85.19;99381.48;1725780;81;21067;-72
2022/09/12 07:08:48;;;;;;;16.85;15.05;;;;;;;13.95;85.17;99375.17;1795552;78;22827;-70
2022/09/12 07:11:23;;;;;;;16.30;14.60;;;;;;;13.97;85.15;99378.48;1797672;78;21054;-71
2022/09/12 07:13:53;;;;;;;19.30;15.15;;;;;;;14.01;85.19;99379.82;1773901;78;21500;-71
2022/09/12 07:16:22;;;;;;;17.25;15.43;;;;;;;14.06;85.14;99385.94;1799518;78;22206;-71
2022/09/12 07:18:56;;;;;;;18.55;16.65;;;;;;;14.07;85.07;99382.78;1782110;78;21034;-70
2022/09/12 07:21:23;;;;;;;17.80;15.95;;;;;;;14.08;85.04;99385.27;1802016;79;21870;-71
2022/09/12 07:23:54;;;;;;;18.15;16.20;;;;;;;14.09;85.03;99381.64;1800594;78;21035;-72
2022/09/12 07:26:21;;;;;;;19.00;15.68;;;;;;;14.12;84.98;99378.64;1793599;78;21514;-70
2022/09/12 07:28:56;;;;;;;17.12;15.20;;;;;;;14.16;85.06;99376.46;1796776;79;21655;-71
2022/09/12 07:31:40;;;;;;;17.67;15.80;;;;;;;14.21;85.03;99376.30;1802792;78;21077;-69
2022/09/12 07:34:12;;;;;;;16.30;14.70;;;;;;;14.25;85.05;99378.94;1802687;79;21403;-71
2022/09/12 07:36:41;;;;;;;15.53;14.03;;;;;;;14.32;85.13;99377.27;1795871;78;21541;-72
2022/09/12 07:39:08;;;;;;;17.00;15.23;;;;;;;14.36;85.05;99378.23;1790846;78;21023;-72
2022/09/12 07:41:35;;;;;;;15.95;14.35;;;;;;;14.40;84.95;99375.59;1803841;79;21062;-71
2022/09/12 07:44:02;;;;;;;16.25;14.35;;;;;;;14.42;84.95;99381.56;1801839;78;21006;-73
2022/09/12 07:46:30;;;;;;;15.95;14.20;;;;;;;14.46;84.88;99377.58;1766960;79;21938;-72
2022/09/12 07:48:58;;;;;;;17.98;14.50;;;;;;;14.50;84.85;99382.89;1803041;78;21066;-73
2022/09/12 07:51:27;;;;;;;14.83;13.43;;;;;;;14.54;84.80;99382.88;1796723;78;20995;-72
2022/09/12 07:53:56;;;;;;;16.15;14.55;;;;;;;14.57;84.82;99379.39;1800963;79;21024;-72
2022/09/12 07:56:24;;;;;;;15.00;13.45;;;;;;;14.58;84.69;99378.38;1794092;79;21054;-72
2022/09/12 07:58:51;;;;;;;14.23;12.82;;;;;;;14.61;84.66;99381.19;1802363;78;21825;-73
2022/09/12 08:01:19;;;;;;;14.18;12.68;;;;;;;14.64;84.70;99386.16;1798757;79;21090;-72
2022/09/12 08:03:47;;;;;;;12.25;11.08;;;;;;;14.68;84.73;99382.67;1802031;78;21014;-72
2022/09/12 08:06:19;;;;;;;12.43;11.22;;;;;;;14.71;84.64;99380.48;1793385;79;20995;-73
2022/09/12 08:08:45;;;;;;;11.60;10.40;;;;;;;14.71;84.56;99371.19;1794085;79;21040;-76
2022/09/12 08:11:14;;;;;;;12.85;10.95;;;;;;;14.77;84.62;99371.83;1802848;79;21786;-72
2022/09/12 08:13:41;;;;;;;12.30;11.10;;;;;;;14.84;84.71;99370.12;1801123;79;20939;-73
2022/09/12 08:16:12;;;;;;;12.13;10.98;;;;;;;14.89;84.66;99369.11;1792740;78;21460;-74
2022/09/12 08:18:39;;;;;;;11.88;10.68;;;;;;;15.00;84.70;99369.72;1780168;79;20978;-73
2022/09/12 08:21:11;;;;;;;11.57;10.48;;;;;;;15.09;84.72;99370.00;1802472;78;21010;-72
2022/09/12 08:23:37;;;;;;;12.03;10.78;;;;;;;15.16;84.55;99377.61;1787150;79;22427;-71
2022/09/12 08:26:04;;;;;;;11.88;10.68;;;;;;;15.20;84.30;99370.92;1798630;79;21030;-71
2022/09/12 08:28:33;;;;;;;11.57;10.35;;;;;;;15.20;83.77;99374.09;1800081;78;21106;-72
2022/09/12 08:31:04;;;;;;;11.88;10.70;;;;;;;15.17;83.40;99375.28;1802058;78;21289;-72
2022/09/12 08:33:32;;;;;;;12.63;11.43;;;;;;;15.17;83.08;99380.59;1802142;78;21019;-73
2022/09/12 08:36:08;;;;;;;13.93;11.55;;;;;;;15.18;83.01;99379.09;1789101;78;21491;-73
2022/09/12 08:38:38;;;;;;;13.13;11.83;;;;;;;15.22;82.74;99380.05;1766004;79;21055;-74
2022/09/12 08:41:19;;;;;;;11.75;10.50;;;;;;;15.21;82.47;99373.91;1795602;79;21026;-72
2022/09/12 08:44:26;;;;;;;12.47;11.18;;;;;;;15.22;82.28;99375.56;1767939;79;21030;-73
2022/09/12 08:47:26;;;;;;;12.25;11.05;;;;;;;15.18;82.07;99380.42;1784601;79;21085;-71
2022/09/12 08:50:14;;;;;;;11.95;10.78;;;;;;;15.11;81.78;99371.47;1761312;79;21803;-72
2022/09/12 08:53:02;;;;;;;12.58;11.28;;;;;;;15.09;81.70;99368.67;1797498;79;20983;-75
2022/09/12 08:55:55;;;;;;;12.15;9.98;;;;;;;15.08;81.63;99367.84;1765649;80;21022;-74
2022/09/12 08:58:23;;;;;;;12.37;11.15;;;;;;;15.11;81.53;99370.14;1725333;80;20981;-72
2022/09/12 09:01:22;;;;;;;12.33;11.12;;;;;;;15.15;81.46;99362.16;1786397;78;21014;-72
2022/09/12 09:03:57;;;;;;;12.85;11.55;;;;;;;15.16;81.23;99357.66;1767862;79;21812;-73
2022/09/12 09:07:02;;;;;;;13.28;11.35;;;;;;;15.21;81.28;99355.29;1775760;78;21482;-74
2022/09/12 09:09:44;;;;;;;12.05;10.80;;;;;;;15.30;81.37;99352.91;1773935;79;21054;-72
2022/09/12 09:12:44;;;;;;;13.00;11.73;;;;;;;15.41;81.43;99351.66;1774347;79;21092;-72
2022/09/12 09:15:36;;;;;;;13.10;11.80;;;;;;;15.51;81.46;99333.61;1802074;78;21078;-72
2022/09/12 09:18:10;;;;;;;12.78;11.53;;;;;;;15.72;81.92;99335.63;1795670;78;22429;-72
2022/09/12 09:20:50;;;;;;;11.63;10.43;;;;;;;15.90;82.17;99330.80;1802708;79;21090;-72
2022/09/12 09:23:23;;;;;;;12.75;10.82;;;;;;;16.07;81.83;99331.47;1790624;78;21023;-72
2022/09/12 09:26:00;;;;;;;12.18;10.88;;;;;;;16.17;81.14;99334.69;1799928;79;21461;-75
2022/09/12 09:28:46;;;;;;;10.35;9.30;;;;;;;16.30;80.68;99334.86;1778301;79;21034;-72
2022/09/12 09:31:21;;;;;;;10.53;9.50;;;;;;;16.42;79.91;99339.25;1766065;78;22055;-72
2022/09/12 09:33:53;;;;;;;10.70;9.70;;;;;;;16.52;78.80;99340.30;1801411;79;21022;-70
2022/09/12 09:36:47;;;;;;;11.08;10.00;;;;;;;16.56;78.15;99338.40;1800905;79;21030;-70
2022/09/12 09:39:25;;;;;;;11.00;9.90;;;;;;;16.64;77.70;99337.48;1796681;78;21078;-72
2022/09/12 09:42:15;;;;;;;10.85;9.75;;;;;;;16.79;77.44;99338.80;1789765;79;21054;-71
2022/09/12 09:44:45;;;;;;;11.30;10.15;;;;;;;16.92;77.16;99338.98;1789833;78;21763;-72
2022/09/12 09:47:11;;;;;;;11.88;10.68;;;;;;;17.05;76.89;99339.63;1800817;79;21062;-72
2022/09/12 09:49:38;;;;;;;10.95;9.95;;;;;;;17.08;75.93;99345.42;1803536;78;21034;-73
2022/09/12 09:52:07;;;;;;;12.03;10.82;;;;;;;17.11;75.50;99337.03;1794943;79;20983;-73
2022/09/12 09:54:42;;;;;;;11.12;9.90;;;;;;;17.18;75.43;99341.12;1800706;78;21031;-72
2022/09/12 09:57:37;;;;;;;12.10;10.32;;;;;;;17.32;75.42;99343.40;1796978;79;22503;-73
2022/09/12 10:00:26;;;;;;;10.60;9.60;;;;;;;17.44;74.90;99336.02;1800350;79;22256;-73
2022/09/12 10:03:25;;;;;;;10.53;9.45;;;;;;;17.58;74.82;99342.32;1714301;83;21094;-75
2022/09/12 10:05:53;;;;;;;10.05;9.05;;;;;;;17.75;74.04;99334.88;1775918;79;21019;-76
2022/09/12 10:08:29;;;;;;;9.10;8.20;;;;;;;17.89;72.43;99333.97;1803749;79;21026;-77
2022/09/12 10:11:17;;;;;;;9.33;8.43;;;;;;;18.04;71.09;99333.85;1760669;79;22468;-73
2022/09/12 10:13:55;;;;;;;8.38;7.58;;;;;;;18.11;70.26;99333.91;1775316;80;20991;-72
2022/09/12 10:16:31;;;;;;;9.00;7.33;;;;;;;18.27;70.26;99338.95;1795351;79;21478;-72
2022/09/12 10:19:02;;;;;;;7.00;6.30;;;;;;;18.38;68.86;99330.37;1804327;79;21577;-73
2022/09/12 10:21:43;;;;;;;8.40;7.08;;;;;;;18.44;68.10;99342.97;1803694;79;21034;-73
2022/09/12 10:24:36;;;;;;;7.17;6.42;;;;;;;18.46;66.79;99344.10;1801230;78;21731;-72
2022/09/12 10:27:16;;;;;;;7.00;6.30;;;;;;;18.47;66.38;99343.90;1802724;78;21038;-72
2022/09/12 10:29:53;;;;;;;7.55;6.83;;;;;;;18.51;66.45;99341.64;1801054;79;20962;-72
2022/09/12 10:32:33;;;;;;;7.10;6.37;;;;;;;18.56;64.96;99343.23;1798225;78;20979;-71
2022/09/12 10:35:07;;;;;;;6.30;5.70;;;;;;;18.53;64.79;99340.45;1805273;79;21034;-71
2022/09/12 10:37:38;;;;;;;6.40;5.78;;;;;;;18.76;64.73;99339.33;1776802;79;21883;-71
2022/09/12 10:40:08;;;;;;;6.60;6.00;;;;;;;19.13;64.70;99339.36;1805315;78;20979;-71
2022/09/12 10:42:52;;;;;;;7.47;6.67;;;;;;;19.57;64.39;99339.34;1792659;78;20998;-73
2022/09/12 10:45:22;;;;;;;5.62;5.12;;;;;;;20.08;65.56;99345.42;1809349;77;21042;-72
2022/09/12 10:47:50;;;;;;;4.55;4.15;;;;;;;20.51;64.30;99338.53;1811441;77;21529;-79
2022/09/12 10:50:35;;;;;;;8.73;7.92;;;;;;;20.71;61.90;99341.67;1810976;79;21742;-71
2022/09/12 10:53:20;;;;;;;11.95;10.75;;;;;;;20.61;60.93;99342.12;1791794;79;21105;-72
2022/09/12 10:56:12;;;;;;;14.10;12.30;;;;;;;20.44;62.42;99342.27;1766563;79;20995;-71
2022/09/12 10:58:52;;;;;;;14.83;13.43;;;;;;;20.53;63.28;99345.03;1781506;79;21006;-74
2022/09/12 11:01:49;;;;;;;13.13;11.83;;;;;;;20.57;62.94;99339.56;1811441;79;21038;-71
2022/09/12 11:04:40;;;;;;;12.18;11.00;;;;;;;20.69;62.85;99345.09;1810431;78;22447;-71
2022/09/12 11:07:43;;;;;;;10.80;9.63;;;;;;;20.67;62.90;99343.97;1759834;80;21046;-74
2022/09/12 11:10:27;;;;;;;10.38;9.38;;;;;;;20.63;62.74;99343.24;1759779;80;21033;-71
2022/09/12 11:13:17;;;;;;;10.05;9.15;;;;;;;20.58;62.55;99342.03;1752015;80;27025;-72
2022/09/12 11:16:02;;;;;;;11.75;9.43;;;;;;;20.62;63.01;99341.08;1724315;82;20960;-72
2022/09/12 11:18:49;;;;;;;11.75;10.65;;;;;;;20.72;63.48;99337.42;1745679;82;21938;-72
2022/09/12 11:21:46;;;;;;;11.83;10.75;;;;;;;21.04;62.52;99341.53;1759794;80;20991;-72
2022/09/12 11:24:33;;;;;;;11.88;10.78;;;;;;;21.32;62.81;99335.80;1719384;82;20987;-71
2022/09/12 11:27:10;;;;;;;11.97;10.78;;;;;;;21.52;61.64;99334.31;1729713;81;21034;-71
2022/09/12 11:29:51;;;;;;;11.65;10.55;;;;;;;21.49;60.18;99336.11;1759968;81;21017;-71
2022/09/12 11:32:29;;;;;;;12.13;10.93;;;;;;;21.26;60.17;99335.31;1746784;81;21766;-71
2022/09/12 11:35:29;;;;;;;11.73;10.63;;;;;;;21.13;60.26;99334.36;1759861;80;20963;-69
2022/09/12 11:38:35;;;;;;;12.40;11.20;;;;;;;20.94;60.48;99329.06;1731533;81;20956;-73
2022/09/12 11:41:09;;;;;;;12.53;11.43;;;;;;;20.81;61.14;99332.64;1758963;80;21151;-71
2022/09/12 11:44:11;;;;;;;12.30;11.12;;;;;;;20.65;60.76;99331.77;1719561;82;21370;-72
2022/09/12 11:46:41;;;;;;;13.03;11.73;;;;;;;20.46;60.75;99335.69;1726756;82;22789;-70
2022/09/12 11:49:22;;;;;;;12.53;11.22;;;;;;;20.27;61.22;99335.19;1756952;80;21025;-71
2022/09/12 11:52:12;;;;;;;12.05;10.85;;;;;;;20.11;61.47;99340.98;1732970;81;20982;-72
2022/09/12 11:55:16;;;;;;;12.78;11.48;;;;;;;19.95;61.71;99335.52;1759233;81;21038;-71
2022/09/12 11:57:49;;;;;;;14.45;13.00;;;;;;;19.71;62.60;99337.81;1756929;80;20937;-71
2022/09/12 12:00:31;;;;;;;14.75;13.18;;;;;;;19.43;63.19;99340.64;1750665;80;21836;-68
2022/09/12 12:03:21;;;;;;;14.75;12.40;;;;;;;19.22;63.80;99335.98;1722403;83;21123;-68
2022/09/12 12:06:13;;;;;;;15.48;13.88;;;;;;;19.08;64.54;99331.09;1755679;81;21072;-72